Time;durP1;ratioP1;P1;durP2;ratioP2;P2;SDS_P1;SDS_P2;PMS_P1;PMS_P2;Temp;Humidity;BMP_temperature;BMP_pressure;BME280_temperature;BME280_humidity;BME280_pressure;Samples;Min_cycle;Max_cycle;Signal;HPM_P1;HPM_P2
2021/03/17 00:00:38;;;;;;;4.00;3.40;;;2.00;99.90;;;;;;4954032;28;20440;-62
2021/03/17 00:03:05;;;;;;;4.10;3.70;;;2.00;99.90;;;;;;4933599;28;20486;-62
2021/03/17 00:05:35;;;;;;;5.90;3.80;;;2.00;99.90;;;;;;4952535;28;20440;-62
2021/03/17 00:08:01;;;;;;;5.07;3.43;;;2.00;99.90;;;;;;4952027;28;20978;-63
2021/03/17 00:10:30;;;;;;;3.83;2.97;;;2.00;99.90;;;;;;4937265;28;21109;-62
2021/03/17 00:12:57;;;;;;;5.20;3.33;;;1.90;99.90;;;;;;4963259;28;20928;-65
2021/03/17 00:15:25;;;;;;;4.10;3.67;;;2.00;99.90;;;;;;4959864;28;20447;-64
2021/03/17 00:17:51;;;;;;;3.93;3.13;;;2.00;99.90;;;;;;4931306;28;20496;-65
2021/03/17 00:20:17;;;;;;;5.30;3.50;;;2.00;99.90;;;;;;4954368;28;20554;-63
2021/03/17 00:22:43;;;;;;;5.07;3.80;;;2.00;99.90;;;;;;4955175;28;20182;-60
2021/03/17 00:25:09;;;;;;;3.20;2.90;;;2.00;99.90;;;;;;4949830;28;20430;-62
2021/03/17 00:27:35;;;;;;;4.20;3.50;;;2.00;99.90;;;;;;4952764;28;20476;-63
2021/03/17 00:30:02;;;;;;;3.23;2.80;;;2.00;99.90;;;;;;4932476;29;20431;-62
2021/03/17 00:32:27;;;;;;;3.87;2.70;;;2.00;99.90;;;;;;4959563;28;20643;-62
2021/03/17 00:34:53;;;;;;;3.33;3.03;;;2.00;99.90;;;;;;4961530;28;20444;-62
2021/03/17 00:37:19;;;;;;;3.37;3.07;;;2.00;99.90;;;;;;4968639;28;20195;-62
2021/03/17 00:39:44;;;;;;;2.97;2.53;;;2.00;99.90;;;;;;4934392;29;20275;-65
2021/03/17 00:42:57;;;;;;;3.40;3.10;;;1.90;99.90;;;;;;4950611;28;20201;-63
2021/03/17 00:45:23;;;;;;;3.80;3.23;;;1.90;99.90;;;;;;4962718;28;20519;-63
2021/03/17 00:47:48;;;;;;;3.03;2.70;;;1.90;99.90;;;;;;4962512;28;20552;-63
2021/03/17 00:50:15;;;;;;;5.10;3.23;;;1.90;99.90;;;;;;4953777;28;20173;-63
2021/03/17 00:52:41;;;;;;;5.53;3.20;;;1.90;99.90;;;;;;4936398;28;20658;-62
2021/03/17 00:55:08;;;;;;;3.40;3.00;;;1.90;99.90;;;;;;4943686;28;20427;-62
2021/03/17 00:57:34;;;;;;;4.03;3.07;;;1.90;99.90;;;;;;4959373;28;20201;-62
2021/03/17 00:59:59;;;;;;;6.00;3.27;;;1.80;99.90;;;;;;4950168;28;20550;-65
2021/03/17 01:02:25;;;;;;;4.70;3.27;;;1.90;99.90;;;;;;4967165;28;20189;-63
2021/03/17 01:05:31;;;;;;;3.47;3.10;;;1.90;99.90;;;;;;4955772;28;20188;-61
2021/03/17 01:07:58;;;;;;;4.13;3.10;;;1.80;99.90;;;;;;4966561;28;20250;-64
2021/03/17 01:10:37;;;;;;;2.87;2.67;;;1.80;99.90;;;;;;4972487;28;20434;-63
2021/03/17 01:13:04;;;;;;;5.40;3.53;;;1.90;99.90;;;;;;4966326;28;20438;-62
2021/03/17 01:15:30;;;;;;;4.33;2.90;;;1.80;99.90;;;;;;4940799;28;20440;-63
2021/03/17 01:17:55;;;;;;;3.93;2.90;;;1.80;99.90;;;;;;4957575;28;20467;-63
2021/03/17 01:20:24;;;;;;;3.83;3.43;;;1.90;99.90;;;;;;4960303;28;20851;-63
2021/03/17 01:22:50;;;;;;;2.97;2.67;;;1.90;99.90;;;;;;4955379;28;20236;-63
2021/03/17 01:25:21;;;;;;;3.87;3.33;;;1.90;99.90;;;;;;4959480;28;20969;-63
2021/03/17 01:27:46;;;;;;;2.90;2.67;;;1.90;99.90;;;;;;4952791;28;20481;-62
2021/03/17 01:30:13;;;;;;;4.17;2.90;;;1.90;99.90;;;;;;4963686;28;20423;-63
2021/03/17 01:32:39;;;;;;;3.33;3.03;;;1.90;99.90;;;;;;4959267;28;20183;-63
2021/03/17 01:35:11;;;;;;;5.23;3.57;;;1.90;99.90;;;;;;4968153;28;20439;-62
2021/03/17 01:37:37;;;;;;;4.67;3.33;;;1.90;99.90;;;;;;4972564;28;20488;-62
2021/03/17 01:40:05;;;;;;;4.30;3.70;;;1.90;99.90;;;;;;4942066;28;20969;-63
2021/03/17 01:42:30;;;;;;;3.73;3.17;;;1.90;99.90;;;;;;4948488;28;20192;-63
2021/03/17 01:44:56;;;;;;;5.13;3.43;;;1.90;99.90;;;;;;4961544;28;20435;-62
2021/03/17 01:47:22;;;;;;;3.33;3.03;;;1.90;99.90;;;;;;4967308;28;20222;-64
2021/03/17 01:49:48;;;;;;;4.00;3.60;;;1.90;99.90;;;;;;4983110;28;20515;-63
2021/03/17 01:52:14;;;;;;;4.20;3.57;;;1.90;99.90;;;;;;4955938;28;20195;-64
2021/03/17 01:54:39;;;;;;;7.40;3.40;;;1.90;99.90;;;;;;4957403;28;20327;-62
2021/03/17 01:57:06;;;;;;;4.17;3.63;;;1.90;99.90;;;;;;4940721;29;20240;-62
2021/03/17 01:59:34;;;;;;;6.37;4.00;;;1.80;99.90;;;;;;4944876;28;20622;-62
2021/03/17 02:02:01;;;;;;;3.93;3.50;;;1.80;99.90;;;;;;4958264;28;20499;-65
2021/03/17 02:04:27;;;;;;;4.93;3.80;;;1.90;99.90;;;;;;4945880;28;20450;-62
2021/03/17 02:06:53;;;;;;;4.93;3.30;;;1.80;99.90;;;;;;4940561;28;20437;-63
2021/03/17 02:09:19;;;;;;;3.80;3.13;;;1.80;99.90;;;;;;4939681;28;20221;-63
2021/03/17 02:11:57;;;;;;;4.97;3.37;;;1.80;99.90;;;;;;4964134;28;20186;-62
2021/03/17 02:15:01;;;;;;;5.33;3.80;;;1.80;99.90;;;;;;4962753;28;20431;-63
2021/03/17 02:17:28;;;;;;;4.53;3.53;;;1.80;99.90;;;;;;4967244;28;20447;-63
2021/03/17 02:20:23;;;;;;;5.60;4.00;;;1.80;99.90;;;;;;4954814;28;20440;-63
2021/03/17 02:23:16;;;;;;;6.77;3.37;;;1.80;99.90;;;;;;4961593;28;20493;-61
2021/03/17 02:26:02;;;;;;;6.17;3.80;;;1.80;99.90;;;;;;4953945;28;20474;-62
2021/03/17 02:28:49;;;;;;;4.87;3.77;;;1.80;99.90;;;;;;4963518;28;20466;-62
2021/03/17 02:31:44;;;;;;;4.13;3.63;;;1.80;99.90;;;;;;4967058;28;20428;-62
2021/03/17 02:34:14;;;;;;;4.50;3.77;;;1.80;99.90;;;;;;4965516;28;20520;-64
2021/03/17 02:36:56;;;;;;;4.17;3.30;;;1.80;99.90;;;;;;4969846;28;20429;-62
2021/03/17 02:39:32;;;;;;;5.07;3.40;;;1.80;99.90;;;;;;4939481;28;21525;-62
2021/03/17 02:42:18;;;;;;;4.07;3.20;;;1.70;99.90;;;;;;4964806;28;20449;-62
2021/03/17 02:44:57;;;;;;;3.80;3.00;;;1.80;99.90;;;;;;4937287;28;20439;-62
2021/03/17 02:47:27;;;;;;;4.53;3.93;;;1.70;99.90;;;;;;4958185;28;20851;-63
2021/03/17 02:49:57;;;;;;;4.40;3.00;;;1.70;99.90;;;;;;4984137;23;20505;-61
2021/03/17 02:52:29;;;;;;;4.40;3.30;;;1.70;99.90;;;;;;4984895;28;21041;-60
2021/03/17 02:54:57;;;;;;;4.00;3.40;;;1.70;99.90;;;;;;4987589;28;20427;-61
2021/03/17 02:57:25;;;;;;;4.07;3.30;;;1.70;99.90;;;;;;4987962;28;20427;-62
2021/03/17 02:59:53;;;;;;;6.70;3.73;;;1.70;99.90;;;;;;4988271;28;20457;-61
2021/03/17 03:02:20;;;;;;;3.80;3.40;;;1.70;99.90;;;;;;4988370;28;20533;-64
2021/03/17 03:04:49;;;;;;;4.97;4.00;;;1.70;99.90;;;;;;4968390;28;20457;-61
2021/03/17 03:07:14;;;;;;;4.50;3.70;;;1.70;99.90;;;;;;4971112;28;20452;-61
2021/03/17 03:09:41;;;;;;;5.90;4.10;;;1.70;99.90;;;;;;4989380;28;20465;-63
2021/03/17 03:12:08;;;;;;;6.77;4.50;;;1.70;99.90;;;;;;4978748;28;20693;-61
2021/03/17 03:14:34;;;;;;;4.87;4.37;;;1.70;99.90;;;;;;4967576;28;20478;-63
2021/03/17 03:17:03;;;;;;;5.23;4.00;;;1.70;99.90;;;;;;4988859;28;20446;-62
2021/03/17 03:19:40;;;;;;;7.60;4.90;;;1.70;99.90;;;;;;4971556;28;20467;-59
2021/03/17 03:22:07;;;;;;;6.20;4.23;;;1.70;99.90;;;;;;4988512;28;20846;-60
2021/03/17 03:24:33;;;;;;;4.20;3.80;;;1.70;99.90;;;;;;4984120;28;20434;-62
2021/03/17 03:27:00;;;;;;;6.20;4.50;;;1.70;99.90;;;;;;4989743;28;20552;-62
2021/03/17 03:29:27;;;;;;;4.90;4.10;;;1.70;99.90;;;;;;4988279;28;20458;-62
2021/03/17 03:31:53;;;;;;;6.03;4.30;;;1.60;99.90;;;;;;4988789;28;20426;-61
2021/03/17 03:34:19;;;;;;;5.50;3.57;;;1.60;99.90;;;;;;4984430;28;20442;-61
2021/03/17 03:36:45;;;;;;;8.30;4.60;;;1.60;99.90;;;;;;4975254;28;20437;-61
2021/03/17 03:39:12;;;;;;;7.03;4.50;;;1.60;99.90;;;;;;4991219;28;20203;-60
2021/03/17 03:41:38;;;;;;;6.43;4.67;;;1.60;99.90;;;;;;4989158;28;20432;-61
2021/03/17 03:44:05;;;;;;;5.30;3.93;;;1.60;99.90;;;;;;4968796;28;20577;-63
2021/03/17 03:46:32;;;;;;;4.70;4.10;;;1.60;99.90;;;;;;4968760;28;20191;-61
2021/03/17 03:49:03;;;;;;;6.53;4.37;;;1.60;99.90;;;;;;4987892;28;21040;-59
2021/03/17 03:51:30;;;;;;;5.90;4.07;;;1.60;99.90;;;;;;4987233;28;20480;-63
2021/03/17 03:54:20;;;;;;;6.07;4.53;;;1.60;99.90;;;;;;4989906;28;20529;-60
2021/03/17 03:57:08;;;;;;;6.20;4.73;;;1.60;99.90;;;;;;4977035;28;20473;-62
2021/03/17 03:59:42;;;;;;;5.70;4.67;;;1.60;99.90;;;;;;4979064;28;20458;-61
2021/03/17 04:02:11;;;;;;;9.23;4.63;;;1.60;99.90;;;;;;4981813;28;20431;-60
2021/03/17 04:04:40;;;;;;;6.17;4.67;;;1.60;99.90;;;;;;4982810;28;20437;-61
2021/03/17 04:07:07;;;;;;;5.70;4.40;;;1.60;99.90;;;;;;4982460;28;20477;-61
2021/03/17 04:09:41;;;;;;;6.57;4.87;;;1.60;99.90;;;;;;4986339;28;20461;-63
2021/03/17 04:12:08;;;;;;;6.00;4.90;;;1.60;99.90;;;;;;4978843;28;20418;-60
2021/03/17 04:14:35;;;;;;;6.13;4.90;;;1.60;99.90;;;;;;4982033;28;20476;-60
2021/03/17 04:17:11;;;;;;;7.80;5.00;;;1.60;99.90;;;;;;4971202;28;20434;-62
2021/03/17 04:19:42;;;;;;;7.90;5.23;;;1.60;99.90;;;;;;4968524;28;20986;-61
2021/03/17 04:22:10;;;;;;;7.63;5.30;;;1.60;99.90;;;;;;4987050;28;20462;-60
2021/03/17 04:24:39;;;;;;;8.20;5.30;;;1.60;99.90;;;;;;4986545;28;20503;-61
2021/03/17 04:27:06;;;;;;;9.73;6.43;;;1.60;99.90;;;;;;4980788;28;20855;-60
2021/03/17 04:29:34;;;;;;;7.23;5.50;;;1.60;99.90;;;;;;4987488;28;20461;-61
2021/03/17 04:32:01;;;;;;;11.93;5.20;;;1.60;99.90;;;;;;4984924;28;20477;-63
2021/03/17 04:34:28;;;;;;;6.33;5.47;;;1.60;99.90;;;;;;4964851;28;20458;-61
2021/03/17 04:36:55;;;;;;;6.17;4.90;;;1.60;99.90;;;;;;4992073;28;20795;-62
2021/03/17 04:39:22;;;;;;;6.73;4.83;;;1.50;99.90;;;;;;4988356;28;20862;-61
2021/03/17 04:41:48;;;;;;;9.00;4.97;;;1.60;99.90;;;;;;4993285;28;20461;-61
2021/03/17 04:44:15;;;;;;;7.17;4.93;;;1.50;99.90;;;;;;4989276;28;20473;-62
2021/03/17 04:46:42;;;;;;;8.37;5.50;;;1.60;99.90;;;;;;4987914;28;20898;-61
2021/03/17 04:49:09;;;;;;;9.27;6.03;;;1.50;99.90;;;;;;4975224;28;20573;-60
2021/03/17 04:51:38;;;;;;;9.20;6.37;;;1.50;99.90;;;;;;4989357;28;20440;-61
2021/03/17 04:54:05;;;;;;;9.03;5.87;;;1.50;99.90;;;;;;4980269;28;20450;-63
2021/03/17 04:56:32;;;;;;;11.10;6.73;;;1.50;99.90;;;;;;4990764;28;20444;-61
2021/03/17 04:59:01;;;;;;;8.77;6.07;;;1.50;99.90;;;;;;4991050;28;20454;-59
2021/03/17 05:01:29;;;;;;;10.03;5.50;;;1.50;99.90;;;;;;4985398;28;20446;-65
2021/03/17 05:03:56;;;;;;;7.80;5.43;;;1.50;99.90;;;;;;4986113;28;21046;-61
2021/03/17 05:06:21;;;;;;;8.67;5.90;;;1.50;99.90;;;;;;4984361;28;20492;-61
2021/03/17 05:08:47;;;;;;;6.83;5.47;;;1.50;99.90;;;;;;4988902;28;20941;-60
2021/03/17 05:11:17;;;;;;;9.50;6.00;;;1.50;99.90;;;;;;4970944;28;20732;-62
2021/03/17 05:13:43;;;;;;;7.97;5.37;;;1.50;99.90;;;;;;4988989;28;20594;-61
2021/03/17 05:16:11;;;;;;;9.17;5.97;;;1.50;99.90;;;;;;4971682;28;20522;-61
2021/03/17 05:18:38;;;;;;;18.93;9.47;;;1.60;99.90;;;;;;4983693;28;20453;-64
2021/03/17 05:21:04;;;;;;;10.73;7.43;;;1.50;99.90;;;;;;4983454;28;20442;-60
2021/03/17 05:23:30;;;;;;;11.13;7.33;;;1.60;99.90;;;;;;4981667;28;20439;-63
2021/03/17 05:25:58;;;;;;;12.13;7.90;;;1.60;99.90;;;;;;4985106;28;20447;-59
2021/03/17 05:28:24;;;;;;;11.33;7.40;;;1.60;99.90;;;;;;4995754;28;20199;-64
2021/03/17 05:30:52;;;;;;;10.73;7.13;;;1.60;99.90;;;;;;4991849;28;20436;-61
2021/03/17 05:33:25;;;;;;;13.40;8.17;;;1.60;99.90;;;;;;4981914;28;20986;-63
2021/03/17 05:35:51;;;;;;;10.77;7.63;;;1.60;99.90;;;;;;4957320;28;20459;-64
2021/03/17 05:38:17;;;;;;;8.50;6.70;;;1.60;99.90;;;;;;4983034;28;20454;-62
2021/03/17 05:40:42;;;;;;;14.80;6.63;;;1.60;99.90;;;;;;4983824;28;20245;-63
2021/03/17 05:43:08;;;;;;;9.60;6.80;;;1.60;99.90;;;;;;4984426;28;20180;-63
2021/03/17 05:45:36;;;;;;;8.37;6.03;;;1.60;99.90;;;;;;4977258;28;20682;-64
2021/03/17 05:48:04;;;;;;;9.73;6.90;;;1.60;99.90;;;;;;4982038;28;20490;-61
2021/03/17 05:50:30;;;;;;;7.03;5.27;;;1.60;99.90;;;;;;4980217;28;20461;-60
2021/03/17 05:52:57;;;;;;;5.67;4.80;;;1.60;99.90;;;;;;4978598;28;20441;-62
2021/03/17 05:55:23;;;;;;;5.10;3.80;;;1.60;99.90;;;;;;4952942;28;20430;-61
2021/03/17 05:57:49;;;;;;;4.07;3.30;;;1.60;99.90;;;;;;4978558;28;20441;-61
2021/03/17 06:00:18;;;;;;;3.30;3.00;;;1.60;99.90;;;;;;4959268;28;20993;-60
2021/03/17 06:02:44;;;;;;;4.63;3.20;;;1.60;99.90;;;;;;4960702;28;20454;-63
2021/03/17 06:05:11;;;;;;;4.47;3.33;;;1.70;99.90;;;;;;4974971;28;20445;-63
2021/03/17 06:07:51;;;;;;;4.10;3.67;;;1.70;99.90;;;;;;4988548;28;20200;-61
2021/03/17 06:10:18;;;;;;;3.73;3.10;;;1.80;99.90;;;;;;4960905;28;20802;-62
2021/03/17 06:12:56;;;;;;;2.87;2.60;;;1.80;99.90;;;;;;4983141;28;20787;-62
2021/03/17 06:15:23;;;;;;;3.33;2.80;;;1.80;99.90;;;;;;4977484;28;20446;-60
2021/03/17 06:18:05;;;;;;;3.37;3.07;;;1.80;99.90;;;;;;4981146;28;20569;-63
2021/03/17 06:20:31;;;;;;;4.53;3.40;;;1.80;99.90;;;;;;4979312;28;20592;-61
2021/03/17 06:22:57;;;;;;;4.30;3.37;;;1.90;99.90;;;;;;4981323;28;20932;-62
2021/03/17 06:25:23;;;;;;;5.37;3.80;;;1.90;99.90;;;;;;4964474;28;20461;-62
2021/03/17 06:27:50;;;;;;;4.87;3.70;;;1.90;99.90;;;;;;4962209;28;20213;-63
2021/03/17 06:30:16;;;;;;;9.37;6.20;;;1.90;99.90;;;;;;4975685;28;21101;-61
2021/03/17 06:32:43;;;;;;;8.40;6.03;;;1.90;99.90;;;;;;4965364;28;20461;-63
2021/03/17 06:35:29;;;;;;;11.83;6.40;;;1.90;99.90;;;;;;4988937;28;20435;-65
2021/03/17 06:37:55;;;;;;;10.80;6.00;;;1.90;99.90;;;;;;4981820;28;20448;-63
2021/03/17 06:40:27;;;;;;;8.30;5.40;;;1.90;99.90;;;;;;4989286;28;20977;-62
2021/03/17 06:42:55;;;;;;;9.83;5.40;;;1.90;99.90;;;;;;4963761;28;20443;-64
2021/03/17 06:45:31;;;;;;;7.53;5.03;;;1.90;99.90;;;;;;4976452;28;20952;-62
2021/03/17 06:48:16;;;;;;;6.30;4.37;;;1.90;99.90;;;;;;4978314;28;20476;-61
2021/03/17 06:50:41;;;;;;;5.27;4.10;;;1.90;99.90;;;;;;4966609;28;20465;-62
2021/03/17 06:53:07;;;;;;;5.37;4.30;;;1.90;99.90;;;;;;4987495;28;20462;-61
2021/03/17 06:55:33;;;;;;;7.13;4.77;;;2.00;99.90;;;;;;4968950;28;20612;-63
2021/03/17 06:57:59;;;;;;;7.53;4.93;;;2.00;99.90;;;;;;4980531;28;20238;-61
2021/03/17 07:00:32;;;;;;;6.80;4.10;;;2.00;99.90;;;;;;4994134;28;20215;-63
2021/03/17 07:03:13;;;;;;;5.47;3.77;;;2.10;99.90;;;;;;4964799;28;20464;-64
2021/03/17 07:05:44;;;;;;;5.90;4.30;;;2.10;99.90;;;;;;4977656;28;20523;-61
2021/03/17 07:08:15;;;;;;;5.30;4.40;;;2.10;99.90;;;;;;4984004;28;20960;-62
2021/03/17 07:10:45;;;;;;;7.57;4.50;;;2.10;99.90;;;;;;4973685;28;20450;-63
2021/03/17 07:13:14;;;;;;;7.17;4.23;;;2.10;99.90;;;;;;4971016;28;20432;-63
2021/03/17 07:15:41;;;;;;;7.30;4.73;;;2.20;99.90;;;;;;4987245;28;20931;-61
2021/03/17 07:18:25;;;;;;;4.47;3.90;;;2.30;99.90;;;;;;4983563;28;20450;-64
2021/03/17 07:21:03;;;;;;;6.97;4.67;;;2.30;99.90;;;;;;4989648;28;20432;-63
2021/03/17 07:23:50;;;;;;;7.33;5.20;;;2.40;99.90;;;;;;4970100;28;21165;-62
2021/03/17 07:26:20;;;;;;;8.60;5.20;;;2.50;99.90;;;;;;4985872;28;20797;-61
2021/03/17 07:28:53;;;;;;;8.30;5.60;;;2.50;99.90;;;;;;4985443;28;20477;-61
2021/03/17 07:31:22;;;;;;;6.67;4.87;;;2.50;99.90;;;;;;4963014;28;20443;-61
2021/03/17 07:33:49;;;;;;;8.10;5.67;;;2.50;99.90;;;;;;4962942;28;22502;-61
2021/03/17 07:36:32;;;;;;;7.40;5.60;;;2.50;99.90;;;;;;4983605;28;20839;-61
2021/03/17 07:39:04;;;;;;;9.10;5.77;;;2.50;99.90;;;;;;4984109;28;20468;-61
2021/03/17 07:41:32;;;;;;;11.10;6.93;;;2.50;99.90;;;;;;4989759;28;20442;-64
2021/03/17 07:43:57;;;;;;;13.57;8.20;;;2.50;99.90;;;;;;4978676;28;20446;-64
2021/03/17 07:46:25;;;;;;;10.00;7.07;;;2.50;99.90;;;;;;4984171;28;20471;-62
2021/03/17 07:48:51;;;;;;;9.53;6.10;;;2.50;99.90;;;;;;4979892;28;20472;-61
2021/03/17 07:51:21;;;;;;;8.27;5.87;;;2.50;99.90;;;;;;4983046;28;20801;-60
2021/03/17 07:53:51;;;;;;;8.17;5.23;;;2.60;99.90;;;;;;4985155;28;20498;-65
2021/03/17 07:56:22;;;;;;;7.73;5.10;;;2.70;99.90;;;;;;4983578;28;20446;-61
2021/03/17 07:58:52;;;;;;;13.87;5.43;;;2.70;99.90;;;;;;4981870;28;20543;-61
2021/03/17 08:01:19;;;;;;;9.77;6.23;;;2.80;99.90;;;;;;4981034;28;20449;-62
2021/03/17 08:03:47;;;;;;;8.50;5.80;;;2.90;99.90;;;;;;4962661;28;20440;-61
2021/03/17 08:06:18;;;;;;;7.73;5.00;;;3.00;99.90;;;;;;4985773;28;20469;-63
2021/03/17 08:08:44;;;;;;;7.83;5.30;;;3.00;99.90;;;;;;4985271;28;20517;-59
2021/03/17 08:11:12;;;;;;;7.30;5.00;;;3.10;99.90;;;;;;4988525;28;20428;-60
2021/03/17 08:13:41;;;;;;;7.60;5.70;;;3.20;99.90;;;;;;4983680;28;21082;-59
2021/03/17 08:16:08;;;;;;;12.80;6.93;;;3.30;99.90;;;;;;4986607;28;20482;-60
2021/03/17 08:18:33;;;;;;;7.90;5.47;;;3.30;99.90;;;;;;4984688;28;20459;-60
2021/03/17 08:21:00;;;;;;;11.90;6.00;;;3.40;99.90;;;;;;4990993;28;20462;-61
2021/03/17 08:23:44;;;;;;;9.47;5.50;;;3.50;99.90;;;;;;4970725;28;20184;-63
2021/03/17 08:26:20;;;;;;;10.00;6.20;;;3.50;99.90;;;;;;4985008;28;20454;-62
2021/03/17 08:28:51;;;;;;;8.97;6.47;;;3.60;99.90;;;;;;4989251;28;20475;-61
2021/03/17 08:31:36;;;;;;;9.63;5.50;;;3.60;99.90;;;;;;4971481;28;20527;-59
2021/03/17 08:34:21;;;;;;;11.10;5.90;;;3.60;99.90;;;;;;4984535;28;20849;-59
2021/03/17 08:36:53;;;;;;;8.80;5.67;;;3.70;99.90;;;;;;4991239;28;20441;-61
2021/03/17 08:39:34;;;;;;;10.20;6.13;;;3.70;99.90;;;;;;4974839;28;20534;-64
2021/03/17 08:42:04;;;;;;;9.50;6.10;;;3.70;99.90;;;;;;4969677;28;20428;-62
2021/03/17 08:44:38;;;;;;;9.90;6.20;;;3.70;99.90;;;;;;4984347;28;20516;-62
2021/03/17 08:47:46;;;;;;;10.87;6.67;;;3.60;99.90;;;;;;4989668;28;20431;-63
2021/03/17 08:50:14;;;;;;;7.23;6.17;;;3.60;99.90;;;;;;4895454;29;20477;-62
2021/03/17 08:52:48;;;;;;;9.03;6.67;;;3.70;99.90;;;;;;4971064;28;20484;-63
2021/03/17 08:55:16;;;;;;;8.87;5.90;;;3.60;99.90;;;;;;4976250;28;20463;-62
2021/03/17 08:57:55;;;;;;;10.00;6.60;;;3.60;99.90;;;;;;4987333;28;20436;-63
2021/03/17 09:00:59;;;;;;;10.07;6.40;;;3.60;99.90;;;;;;4967075;28;20467;-62
2021/03/17 09:03:31;;;;;;;10.33;6.50;;;3.60;99.90;;;;;;4986045;28;20878;-63
2021/03/17 09:06:09;;;;;;;9.10;5.97;;;3.60;99.90;;;;;;4987011;28;20516;-62
2021/03/17 09:08:52;;;;;;;8.83;5.90;;;3.60;99.90;;;;;;4987452;28;20463;-62
2021/03/17 09:11:30;;;;;;;8.73;5.83;;;3.60;99.90;;;;;;4966250;28;20988;-62
2021/03/17 09:14:03;;;;;;;8.30;6.20;;;3.60;99.90;;;;;;4987120;28;20432;-62
2021/03/17 09:16:31;;;;;;;10.03;6.10;;;3.60;99.90;;;;;;4989041;28;20894;-63
2021/03/17 09:19:08;;;;;;;8.83;5.77;;;3.60;99.90;;;;;;4990168;28;20456;-63
2021/03/17 09:21:36;;;;;;;6.90;5.27;;;3.70;99.90;;;;;;4989359;28;20915;-61
2021/03/17 09:24:02;;;;;;;8.60;6.00;;;3.70;99.90;;;;;;4988489;28;20429;-61
2021/03/17 09:26:31;;;;;;;7.03;4.80;;;3.70;99.90;;;;;;4990515;28;20488;-61
2021/03/17 09:29:07;;;;;;;7.10;5.80;;;3.80;99.90;;;;;;4964667;28;20464;-61
2021/03/17 09:31:34;;;;;;;8.50;5.60;;;3.80;99.90;;;;;;4987650;28;20465;-61
2021/03/17 09:34:01;;;;;;;8.77;5.87;;;3.90;99.90;;;;;;4979294;28;20957;-62
2021/03/17 09:36:28;;;;;;;8.03;6.03;;;3.90;99.90;;;;;;4987791;28;20491;-61
2021/03/17 09:38:56;;;;;;;10.03;6.03;;;4.00;99.90;;;;;;4989343;28;20467;-63
2021/03/17 09:41:25;;;;;;;10.33;6.77;;;4.00;99.90;;;;;;4990608;28;20463;-61
2021/03/17 09:43:55;;;;;;;10.97;7.07;;;4.10;99.90;;;;;;4990949;28;20827;-61
2021/03/17 09:46:42;;;;;;;7.37;5.97;;;4.20;99.90;;;;;;4970493;28;20439;-61
2021/03/17 09:49:13;;;;;;;10.70;7.20;;;4.30;99.90;;;;;;4983541;28;20972;-62
2021/03/17 09:51:47;;;;;;;9.57;6.80;;;4.30;99.90;;;;;;4992299;28;22410;-61
2021/03/17 09:54:16;;;;;;;13.13;7.93;;;4.30;99.90;;;;;;4985749;28;20516;-61
2021/03/17 09:56:52;;;;;;;8.80;6.27;;;4.30;99.90;;;;;;4987538;28;20943;-61
2021/03/17 09:59:34;;;;;;;8.60;6.23;;;4.20;99.90;;;;;;4983749;28;20462;-64
2021/03/17 10:02:00;;;;;;;8.40;6.23;;;4.10;99.90;;;;;;4965573;28;20464;-62
2021/03/17 10:04:29;;;;;;;7.37;5.00;;;3.90;99.90;;;;;;4965318;28;20882;-65
2021/03/17 10:06:56;;;;;;;5.80;3.77;;;3.70;99.90;;;;;;4982642;28;20421;-63
2021/03/17 10:09:27;;;;;;;4.70;3.40;;;3.50;99.90;;;;;;4971026;28;20460;-65
2021/03/17 10:12:02;;;;;;;3.87;2.60;;;3.30;99.90;;;;;;4972030;28;20975;-61
2021/03/17 10:14:28;;;;;;;2.77;2.43;;;3.10;99.90;;;;;;4986202;28;20431;-60
2021/03/17 10:16:55;;;;;;;3.83;2.80;;;3.00;99.90;;;;;;4970464;28;20842;-61
2021/03/17 10:19:21;;;;;;;3.40;2.60;;;2.90;99.90;;;;;;4983674;28;20971;-63
2021/03/17 10:21:52;;;;;;;4.53;2.73;;;2.90;99.90;;;;;;4990219;28;20432;-63
2021/03/17 10:24:37;;;;;;;3.70;2.70;;;2.90;99.90;;;;;;4985255;28;20187;-61
2021/03/17 10:27:11;;;;;;;2.27;2.00;;;2.90;99.90;;;;;;4967462;28;20455;-62
2021/03/17 10:29:39;;;;;;;4.17;2.70;;;2.80;99.90;;;;;;4987132;28;20969;-61
2021/03/17 10:32:07;;;;;;;3.70;2.40;;;2.80;99.90;;;;;;4970699;28;20812;-62
2021/03/17 10:34:32;;;;;;;3.07;2.67;;;2.80;99.90;;;;;;4967915;28;20468;-60
2021/03/17 10:36:59;;;;;;;4.20;3.10;;;2.80;99.90;;;;;;4965006;28;21017;-60
2021/03/17 10:39:28;;;;;;;5.17;3.13;;;2.80;99.90;;;;;;5009483;23;20481;-92
2021/03/17 10:41:54;;;;;;;3.30;2.70;;;2.90;99.90;;;;;;4997017;28;20456;-94
2021/03/17 10:44:26;;;;;;;5.80;3.20;;;3.10;99.90;;;;;;4990759;28;20442;-93
2021/03/17 10:47:18;;;;;;;5.53;3.60;;;3.30;99.90;;;;;;4994558;28;20444;-93
2021/03/17 10:49:46;;;;;;;3.90;3.33;;;3.50;99.90;;;;;;4990385;28;20469;-91
2021/03/17 10:52:13;;;;;;;4.43;3.30;;;3.70;99.90;;;;;;5011633;23;20877;-58
2021/03/17 10:54:44;;;;;;;5.03;3.10;;;3.90;99.90;;;;;;5006524;28;20435;-56
2021/03/17 10:57:22;;;;;;;4.93;3.33;;;4.10;99.90;;;;;;4984618;28;20422;-57
2021/03/17 10:59:48;;;;;;;5.50;3.17;;;4.40;99.90;;;;;;4990134;28;20450;-59
2021/03/17 11:02:31;;;;;;;3.50;2.97;;;4.60;99.90;;;;;;4984520;28;20425;-58
2021/03/17 11:05:16;;;;;;;3.10;2.60;;;4.90;99.30;;;;;;4984133;28;20472;-58
2021/03/17 11:08:05;;;;;;;4.40;3.03;;;5.10;99.60;;;;;;4958868;28;20456;-60
2021/03/17 11:10:36;;;;;;;4.03;3.20;;;5.30;99.10;;;;;;4985213;28;20452;-58
2021/03/17 11:13:17;;;;;;;4.60;2.97;;;5.40;97.50;;;;;;4985823;28;20459;-57
2021/03/17 11:15:55;;;;;;;5.10;3.17;;;5.60;97.70;;;;;;4967295;28;20446;-58
2021/03/17 11:18:47;;;;;;;4.33;3.30;;;5.70;96.40;;;;;;4985963;28;20444;-57
2021/03/17 11:21:34;;;;;;;6.63;3.50;;;5.70;95.90;;;;;;4955035;28;20456;-54
2021/03/17 11:24:05;;;;;;;4.30;3.57;;;5.90;96.30;;;;;;4960634;28;21136;-56
2021/03/17 11:26:38;;;;;;;6.03;3.60;;;6.10;96.40;;;;;;4989463;28;20430;-58
2021/03/17 11:29:15;;;;;;;4.90;3.43;;;6.30;96.20;;;;;;4981413;28;20465;-59
2021/03/17 11:31:42;;;;;;;5.03;3.67;;;6.50;93.50;;;;;;4989568;28;20431;-59
2021/03/17 11:34:09;;;;;;;7.37;3.77;;;6.50;90.00;;;;;;4982795;28;20439;-58
2021/03/17 11:36:35;;;;;;;3.97;2.93;;;6.40;91.70;;;;;;4990272;28;20462;-60
2021/03/17 11:39:08;;;;;;;6.80;3.43;;;6.30;86.80;;;;;;4980693;28;20468;-58
2021/03/17 11:41:34;;;;;;;3.77;2.77;;;6.20;86.40;;;;;;4967121;28;20432;-58
2021/03/17 11:44:01;;;;;;;3.23;2.60;;;6.10;81.50;;;;;;4987117;28;20976;-60
2021/03/17 11:46:26;;;;;;;3.40;2.50;;;6.10;89.60;;;;;;4989469;28;20452;-61
2021/03/17 11:48:53;;;;;;;2.47;2.27;;;6.00;88.20;;;;;;4988464;28;20738;-57
2021/03/17 11:51:19;;;;;;;5.13;2.00;;;6.00;88.80;;;;;;4983660;28;20579;-59
2021/03/17 11:53:45;;;;;;;1.53;1.43;;;6.00;86.20;;;;;;4986164;28;20531;-59
2021/03/17 11:56:11;;;;;;;4.17;1.53;;;6.00;80.60;;;;;;4966930;28;20523;-59
2021/03/17 11:58:38;;;;;;;1.70;1.47;;;5.90;75.60;;;;;;4984810;28;20189;-61
2021/03/17 12:01:05;;;;;;;2.23;2.03;;;5.80;76.70;;;;;;4984755;28;20455;-59
2021/03/17 12:03:32;;;;;;;2.23;1.80;;;5.80;80.70;;;;;;4967746;28;20448;-61
2021/03/17 12:05:58;;;;;;;1.70;1.50;;;5.80;81.50;;;;;;4982963;28;20447;-60
2021/03/17 12:08:24;;;;;;;1.80;1.43;;;5.80;81.40;;;;;;4988025;28;20460;-57
2021/03/17 12:10:52;;;;;;;1.90;1.70;;;5.90;82.00;;;;;;4985395;28;20461;-59
2021/03/17 12:13:18;;;;;;;5.37;1.60;;;5.80;76.70;;;;;;4985643;28;20191;-56
2021/03/17 12:15:44;;;;;;;1.70;1.60;;;5.70;75.20;;;;;;4981787;28;20436;-56
2021/03/17 12:18:10;;;;;;;2.60;2.13;;;5.70;76.00;;;;;;4983119;28;20440;-61
2021/03/17 12:20:36;;;;;;;2.43;2.20;;;5.70;76.10;;;;;;4972851;28;20304;-62
2021/03/17 12:23:03;;;;;;;2.50;2.20;;;5.60;77.60;;;;;;4988096;28;20526;-58
2021/03/17 12:25:29;;;;;;;4.37;2.60;;;5.60;81.00;;;;;;4965286;28;20190;-59
2021/03/17 12:27:55;;;;;;;4.30;2.73;;;5.50;83.70;;;;;;4967950;28;20468;-57
2021/03/17 12:30:22;;;;;;;4.07;3.03;;;5.60;83.60;;;;;;4977682;28;20206;-60
2021/03/17 12:32:49;;;;;;;6.30;3.17;;;5.70;83.10;;;;;;4980796;28;20265;-59
2021/03/17 12:35:16;;;;;;;6.10;2.73;;;5.90;84.90;;;;;;4983637;28;20424;-56
2021/03/17 12:37:44;;;;;;;4.00;2.90;;;6.10;86.90;;;;;;4986525;28;20432;-55
2021/03/17 12:40:12;;;;;;;7.67;3.40;;;6.30;85.70;;;;;;4985554;28;20453;-60
2021/03/17 12:42:38;;;;;;;4.80;2.67;;;6.40;83.10;;;;;;4960146;28;20437;-60
2021/03/17 12:45:06;;;;;;;6.27;2.97;;;6.50;83.90;;;;;;4981983;28;20916;-60
2021/03/17 12:47:32;;;;;;;6.33;3.07;;;6.40;82.50;;;;;;4963937;28;20237;-64
2021/03/17 12:49:58;;;;;;;5.13;3.60;;;6.30;81.40;;;;;;4981676;28;20464;-59
2021/03/17 12:52:24;;;;;;;5.43;4.00;;;6.20;80.30;;;;;;4987266;28;20435;-62
2021/03/17 12:54:49;;;;;;;5.00;3.50;;;6.20;81.90;;;;;;4967149;28;20592;-56
2021/03/17 12:57:15;;;;;;;4.67;4.00;;;6.50;78.60;;;;;;4974418;28;20189;-60
2021/03/17 12:59:41;;;;;;;5.30;3.30;;;6.80;76.00;;;;;;4980141;28;20850;-61
2021/03/17 13:02:07;;;;;;;6.10;3.17;;;7.00;78.30;;;;;;4983439;28;20288;-60
2021/03/17 13:04:33;;;;;;;4.87;3.73;;;7.20;75.20;;;;;;4989929;28;20188;-59
2021/03/17 13:06:59;;;;;;;3.20;2.90;;;7.60;74.50;;;;;;4990951;28;20751;-57
2021/03/17 13:09:25;;;;;;;2.60;2.40;;;7.80;68.20;;;;;;4988223;28;20476;-59
2021/03/17 13:11:50;;;;;;;3.40;2.73;;;7.70;59.80;;;;;;4985116;28;20189;-61